Terminal Aerodrome Forecast
Issued by NWS

Home | Current Version | Previous Version | Text Only | Print | Product List | Glossary Off
Versions: 1 2 3 4 5 6 7 8 9 10 11 12 13 14 15

000
FTUS43 KGRB 272300
TAFAUW
TAF
KAUW 272330Z 2800/2824 18003KT P6SM SCT060
     FM280800 00000KT P6SM SCT200
      TEMPO 2809/2813 3SM BR
     FM281400 22005KT P6SM SCT050 SCT200=

USA.gov is the U.S. government's official web portal to all federal, state and local government web resources and services.